sensor_id;sensor_type;location;lat;lon;timestamp;P1;durP1;ratioP1;P2;durP2;ratioP2
23658;SDS011;12006;42.666;23.326;2023-08-30T00:00:56;13.07;;;8.43;;
23658;SDS011;12006;42.666;23.326;2023-08-30T00:03:21;10.40;;;8.98;;
23658;SDS011;12006;42.666;23.326;2023-08-30T00:05:47;10.65;;;9.35;;
23658;SDS011;12006;42.666;23.326;2023-08-30T00:08:12;11.02;;;9.48;;
23658;SDS011;12006;42.666;23.326;2023-08-30T00:10:47;11.52;;;9.75;;
23658;SDS011;12006;42.666;23.326;2023-08-30T00:13:12;10.85;;;9.50;;
23658;SDS011;12006;42.666;23.326;2023-08-30T00:15:37;12.07;;;10.13;;
23658;SDS011;12006;42.666;23.326;2023-08-30T00:18:03;10.73;;;8.85;;
23658;SDS011;12006;42.666;23.326;2023-08-30T00:20:29;9.52;;;7.70;;
23658;SDS011;12006;42.666;23.326;2023-08-30T00:22:54;8.27;;;7.47;;
23658;SDS011;12006;42.666;23.326;2023-08-30T00:25:19;8.68;;;7.55;;
23658;SDS011;12006;42.666;23.326;2023-08-30T00:27:44;7.07;;;6.30;;
23658;SDS011;12006;42.666;23.326;2023-08-30T00:30:10;7.25;;;6.22;;
23658;SDS011;12006;42.666;23.326;2023-08-30T00:32:36;6.78;;;6.07;;
23658;SDS011;12006;42.666;23.326;2023-08-30T00:35:01;7.43;;;5.63;;
23658;SDS011;12006;42.666;23.326;2023-08-30T00:37:26;6.38;;;5.78;;
23658;SDS011;12006;42.666;23.326;2023-08-30T00:39:51;6.40;;;5.80;;
23658;SDS011;12006;42.666;23.326;2023-08-30T00:42:17;9.23;;;5.90;;
23658;SDS011;12006;42.666;23.326;2023-08-30T00:44:42;6.13;;;5.05;;
23658;SDS011;12006;42.666;23.326;2023-08-30T00:47:07;5.88;;;5.22;;
23658;SDS011;12006;42.666;23.326;2023-08-30T00:49:33;7.32;;;6.25;;
23658;SDS011;12006;42.666;23.326;2023-08-30T00:51:58;7.47;;;5.60;;
23658;SDS011;12006;42.666;23.326;2023-08-30T00:54:26;6.63;;;6.03;;
23658;SDS011;12006;42.666;23.326;2023-08-30T00:56:51;8.65;;;5.82;;
23658;SDS011;12006;42.666;23.326;2023-08-30T00:59:17;6.68;;;4.88;;
23658;SDS011;12006;42.666;23.326;2023-08-30T01:01:42;6.18;;;5.20;;
23658;SDS011;12006;42.666;23.326;2023-08-30T01:04:08;7.65;;;4.90;;
23658;SDS011;12006;42.666;23.326;2023-08-30T01:06:33;5.30;;;4.80;;
23658;SDS011;12006;42.666;23.326;2023-08-30T01:09:02;6.88;;;4.78;;
23658;SDS011;12006;42.666;23.326;2023-08-30T01:14:05;5.20;;;4.70;;
23658;SDS011;12006;42.666;23.326;2023-08-30T01:16:32;6.25;;;4.53;;
23658;SDS011;12006;42.666;23.326;2023-08-30T01:18:59;5.25;;;4.75;;
23658;SDS011;12006;42.666;23.326;2023-08-30T01:21:45;5.65;;;4.45;;
23658;SDS011;12006;42.666;23.326;2023-08-30T01:24:13;8.00;;;4.93;;
23658;SDS011;12006;42.666;23.326;2023-08-30T01:26:42;6.78;;;4.93;;
23658;SDS011;12006;42.666;23.326;2023-08-30T01:29:09;5.35;;;4.78;;
23658;SDS011;12006;42.666;23.326;2023-08-30T01:31:35;5.97;;;5.32;;
23658;SDS011;12006;42.666;23.326;2023-08-30T01:34:02;6.78;;;5.40;;
23658;SDS011;12006;42.666;23.326;2023-08-30T01:36:29;5.90;;;4.75;;
23658;SDS011;12006;42.666;23.326;2023-08-30T01:38:54;5.05;;;4.55;;
23658;SDS011;12006;42.666;23.326;2023-08-30T01:41:20;5.45;;;4.93;;
23658;SDS011;12006;42.666;23.326;2023-08-30T01:43:48;5.35;;;4.85;;
23658;SDS011;12006;42.666;23.326;2023-08-30T01:46:13;7.65;;;5.32;;
23658;SDS011;12006;42.666;23.326;2023-08-30T01:48:40;5.68;;;5.05;;
23658;SDS011;12006;42.666;23.326;2023-08-30T01:51:06;8.50;;;4.65;;
23658;SDS011;12006;42.666;23.326;2023-08-30T01:53:31;6.15;;;5.10;;
23658;SDS011;12006;42.666;23.326;2023-08-30T01:55:57;5.43;;;4.85;;
23658;SDS011;12006;42.666;23.326;2023-08-30T01:58:22;5.65;;;4.95;;
23658;SDS011;12006;42.666;23.326;2023-08-30T02:00:48;5.57;;;5.03;;
23658;SDS011;12006;42.666;23.326;2023-08-30T02:03:14;5.93;;;4.75;;
23658;SDS011;12006;42.666;23.326;2023-08-30T02:05:42;5.47;;;4.85;;
23658;SDS011;12006;42.666;23.326;2023-08-30T02:08:17;7.55;;;5.22;;
23658;SDS011;12006;42.666;23.326;2023-08-30T02:10:52;6.85;;;4.72;;
23658;SDS011;12006;42.666;23.326;2023-08-30T02:13:20;5.03;;;4.43;;
23658;SDS011;12006;42.666;23.326;2023-08-30T02:15:46;5.13;;;4.45;;
23658;SDS011;12006;42.666;23.326;2023-08-30T02:18:12;6.55;;;4.80;;
23658;SDS011;12006;42.666;23.326;2023-08-30T02:20:37;6.30;;;4.63;;
23658;SDS011;12006;42.666;23.326;2023-08-30T02:23:03;4.95;;;4.38;;
23658;SDS011;12006;42.666;23.326;2023-08-30T02:25:28;6.55;;;4.78;;
23658;SDS011;12006;42.666;23.326;2023-08-30T02:27:53;6.78;;;5.28;;
23658;SDS011;12006;42.666;23.326;2023-08-30T02:30:19;7.88;;;5.15;;
23658;SDS011;12006;42.666;23.326;2023-08-30T02:32:44;6.80;;;4.97;;
23658;SDS011;12006;42.666;23.326;2023-08-30T02:35:09;6.22;;;4.72;;
23658;SDS011;12006;42.666;23.326;2023-08-30T02:37:34;5.38;;;4.70;;
23658;SDS011;12006;42.666;23.326;2023-08-30T02:40:00;5.53;;;4.63;;
23658;SDS011;12006;42.666;23.326;2023-08-30T02:42:26;7.88;;;5.25;;
23658;SDS011;12006;42.666;23.326;2023-08-30T02:44:51;6.30;;;5.50;;
23658;SDS011;12006;42.666;23.326;2023-08-30T02:47:16;7.63;;;5.22;;
23658;SDS011;12006;42.666;23.326;2023-08-30T02:49:42;6.93;;;5.25;;
23658;SDS011;12006;42.666;23.326;2023-08-30T02:52:07;6.22;;;4.68;;
23658;SDS011;12006;42.666;23.326;2023-08-30T02:54:32;6.05;;;5.35;;
23658;SDS011;12006;42.666;23.326;2023-08-30T02:56:57;6.28;;;5.50;;
23658;SDS011;12006;42.666;23.326;2023-08-30T02:59:23;6.00;;;5.47;;
23658;SDS011;12006;42.666;23.326;2023-08-30T03:01:48;5.75;;;5.05;;
23658;SDS011;12006;42.666;23.326;2023-08-30T03:04:13;7.13;;;5.25;;
23658;SDS011;12006;42.666;23.326;2023-08-30T03:06:39;5.80;;;5.20;;
23658;SDS011;12006;42.666;23.326;2023-08-30T03:09:04;7.63;;;5.72;;
23658;SDS011;12006;42.666;23.326;2023-08-30T03:11:31;9.70;;;5.90;;
23658;SDS011;12006;42.666;23.326;2023-08-30T03:13:56;6.18;;;4.75;;
23658;SDS011;12006;42.666;23.326;2023-08-30T03:16:21;7.35;;;5.10;;
23658;SDS011;12006;42.666;23.326;2023-08-30T03:18:47;6.95;;;5.32;;
23658;SDS011;12006;42.666;23.326;2023-08-30T03:21:12;7.18;;;5.85;;
23658;SDS011;12006;42.666;23.326;2023-08-30T03:23:38;8.15;;;5.70;;
23658;SDS011;12006;42.666;23.326;2023-08-30T03:26:13;6.13;;;5.03;;
23658;SDS011;12006;42.666;23.326;2023-08-30T03:28:39;7.35;;;5.80;;
23658;SDS011;12006;42.666;23.326;2023-08-30T03:31:18;6.28;;;5.50;;
23658;SDS011;12006;42.666;23.326;2023-08-30T03:33:43;7.13;;;5.20;;
23658;SDS011;12006;42.666;23.326;2023-08-30T03:36:13;6.22;;;5.35;;
23658;SDS011;12006;42.666;23.326;2023-08-30T03:38:38;7.00;;;6.32;;
23658;SDS011;12006;42.666;23.326;2023-08-30T03:41:04;6.55;;;5.47;;
23658;SDS011;12006;42.666;23.326;2023-08-30T03:43:32;7.82;;;5.40;;
23658;SDS011;12006;42.666;23.326;2023-08-30T03:45:58;12.40;;;6.75;;
23658;SDS011;12006;42.666;23.326;2023-08-30T03:48:24;6.57;;;5.75;;
23658;SDS011;12006;42.666;23.326;2023-08-30T03:50:49;9.95;;;5.60;;
23658;SDS011;12006;42.666;23.326;2023-08-30T03:53:14;6.60;;;5.70;;
23658;SDS011;12006;42.666;23.326;2023-08-30T03:55:40;7.88;;;6.07;;
23658;SDS011;12006;42.666;23.326;2023-08-30T03:58:05;7.75;;;6.55;;
23658;SDS011;12006;42.666;23.326;2023-08-30T04:00:31;8.07;;;5.68;;
23658;SDS011;12006;42.666;23.326;2023-08-30T04:02:56;10.32;;;9.02;;
23658;SDS011;12006;42.666;23.326;2023-08-30T04:05:21;8.02;;;6.13;;
23658;SDS011;12006;42.666;23.326;2023-08-30T04:07:46;7.55;;;4.95;;
23658;SDS011;12006;42.666;23.326;2023-08-30T04:10:12;5.97;;;5.25;;
23658;SDS011;12006;42.666;23.326;2023-08-30T04:12:37;5.85;;;5.13;;
23658;SDS011;12006;42.666;23.326;2023-08-30T04:15:02;7.60;;;4.75;;
23658;SDS011;12006;42.666;23.326;2023-08-30T04:17:28;6.65;;;5.32;;
23658;SDS011;12006;42.666;23.326;2023-08-30T04:19:53;6.22;;;4.78;;
23658;SDS011;12006;42.666;23.326;2023-08-30T04:22:18;5.13;;;4.57;;
23658;SDS011;12006;42.666;23.326;2023-08-30T04:24:44;7.90;;;5.43;;
23658;SDS011;12006;42.666;23.326;2023-08-30T04:27:09;7.18;;;5.88;;
23658;SDS011;12006;42.666;23.326;2023-08-30T04:29:34;6.35;;;5.30;;
23658;SDS011;12006;42.666;23.326;2023-08-30T04:32:00;6.68;;;5.15;;
23658;SDS011;12006;42.666;23.326;2023-08-30T04:34:25;8.77;;;5.97;;
23658;SDS011;12006;42.666;23.326;2023-08-30T04:36:50;9.65;;;6.30;;
23658;SDS011;12006;42.666;23.326;2023-08-30T04:39:16;8.38;;;6.78;;
23658;SDS011;12006;42.666;23.326;2023-08-30T04:41:41;8.25;;;6.85;;
23658;SDS011;12006;42.666;23.326;2023-08-30T04:44:06;7.95;;;6.43;;
23658;SDS011;12006;42.666;23.326;2023-08-30T04:46:32;10.48;;;7.82;;
23658;SDS011;12006;42.666;23.326;2023-08-30T04:48:57;9.77;;;8.00;;
23658;SDS011;12006;42.666;23.326;2023-08-30T04:51:22;9.90;;;7.00;;
23658;SDS011;12006;42.666;23.326;2023-08-30T04:53:47;17.55;;;15.75;;
23658;SDS011;12006;42.666;23.326;2023-08-30T04:56:13;10.30;;;7.63;;
23658;SDS011;12006;42.666;23.326;2023-08-30T04:58:38;8.73;;;7.32;;
23658;SDS011;12006;42.666;23.326;2023-08-30T05:01:04;9.90;;;6.70;;
23658;SDS011;12006;42.666;23.326;2023-08-30T05:03:30;7.78;;;6.63;;
23658;SDS011;12006;42.666;23.326;2023-08-30T05:05:55;4.93;;;3.67;;
23658;SDS011;12006;42.666;23.326;2023-08-30T05:08:20;3.10;;;2.58;;
23658;SDS011;12006;42.666;23.326;2023-08-30T05:10:45;4.82;;;2.40;;
23658;SDS011;12006;42.666;23.326;2023-08-30T05:13:11;5.85;;;3.22;;
23658;SDS011;12006;42.666;23.326;2023-08-30T05:15:36;4.60;;;3.17;;
23658;SDS011;12006;42.666;23.326;2023-08-30T05:18:02;4.80;;;3.13;;
23658;SDS011;12006;42.666;23.326;2023-08-30T05:20:27;4.82;;;3.03;;
23658;SDS011;12006;42.666;23.326;2023-08-30T05:22:52;5.15;;;3.20;;
23658;SDS011;12006;42.666;23.326;2023-08-30T05:25:18;3.95;;;3.20;;
23658;SDS011;12006;42.666;23.326;2023-08-30T05:27:43;4.15;;;2.83;;
23658;SDS011;12006;42.666;23.326;2023-08-30T05:30:08;4.20;;;3.00;;
23658;SDS011;12006;42.666;23.326;2023-08-30T05:32:34;5.57;;;2.97;;
23658;SDS011;12006;42.666;23.326;2023-08-30T05:34:59;2.83;;;2.33;;
23658;SDS011;12006;42.666;23.326;2023-08-30T05:37:24;4.53;;;3.03;;
23658;SDS011;12006;42.666;23.326;2023-08-30T05:39:49;4.78;;;2.47;;
23658;SDS011;12006;42.666;23.326;2023-08-30T05:42:15;3.92;;;2.63;;
23658;SDS011;12006;42.666;23.326;2023-08-30T05:44:40;4.03;;;3.00;;
23658;SDS011;12006;42.666;23.326;2023-08-30T05:47:05;5.13;;;2.75;;
23658;SDS011;12006;42.666;23.326;2023-08-30T05:49:30;3.38;;;3.05;;
23658;SDS011;12006;42.666;23.326;2023-08-30T05:51:56;4.80;;;2.95;;
23658;SDS011;12006;42.666;23.326;2023-08-30T05:54:21;3.97;;;3.20;;
23658;SDS011;12006;42.666;23.326;2023-08-30T05:56:47;3.72;;;3.40;;
23658;SDS011;12006;42.666;23.326;2023-08-30T05:59:12;3.95;;;2.60;;
23658;SDS011;12006;42.666;23.326;2023-08-30T06:01:37;5.00;;;2.88;;
23658;SDS011;12006;42.666;23.326;2023-08-30T06:04:03;4.60;;;3.58;;
23658;SDS011;12006;42.666;23.326;2023-08-30T06:06:29;4.18;;;2.75;;
23658;SDS011;12006;42.666;23.326;2023-08-30T06:08:54;3.55;;;2.78;;
23658;SDS011;12006;42.666;23.326;2023-08-30T06:11:20;4.72;;;3.63;;
23658;SDS011;12006;42.666;23.326;2023-08-30T06:13:45;2.72;;;2.47;;
23658;SDS011;12006;42.666;23.326;2023-08-30T06:16:10;5.45;;;3.15;;
23658;SDS011;12006;42.666;23.326;2023-08-30T06:18:35;3.65;;;2.80;;
23658;SDS011;12006;42.666;23.326;2023-08-30T06:21:02;3.97;;;3.00;;
23658;SDS011;12006;42.666;23.326;2023-08-30T06:23:29;5.05;;;2.88;;
23658;SDS011;12006;42.666;23.326;2023-08-30T06:25:57;2.88;;;2.50;;
23658;SDS011;12006;42.666;23.326;2023-08-30T06:28:22;4.18;;;2.95;;
23658;SDS011;12006;42.666;23.326;2023-08-30T06:30:48;4.78;;;3.10;;
23658;SDS011;12006;42.666;23.326;2023-08-30T06:33:14;3.35;;;2.90;;
23658;SDS011;12006;42.666;23.326;2023-08-30T06:35:39;3.60;;;3.00;;
23658;SDS011;12006;42.666;23.326;2023-08-30T06:38:05;4.25;;;3.42;;
23658;SDS011;12006;42.666;23.326;2023-08-30T06:40:30;4.85;;;3.17;;
23658;SDS011;12006;42.666;23.326;2023-08-30T06:42:55;3.22;;;2.45;;
23658;SDS011;12006;42.666;23.326;2023-08-30T06:45:20;4.03;;;2.92;;
23658;SDS011;12006;42.666;23.326;2023-08-30T06:47:47;4.35;;;2.80;;
23658;SDS011;12006;42.666;23.326;2023-08-30T06:50:12;3.25;;;2.95;;
23658;SDS011;12006;42.666;23.326;2023-08-30T06:52:38;9.80;;;8.23;;
23658;SDS011;12006;42.666;23.326;2023-08-30T06:55:03;3.65;;;3.05;;
23658;SDS011;12006;42.666;23.326;2023-08-30T06:57:29;4.18;;;3.20;;
23658;SDS011;12006;42.666;23.326;2023-08-30T06:59:54;5.45;;;3.08;;
23658;SDS011;12006;42.666;23.326;2023-08-30T07:02:19;5.07;;;3.35;;
23658;SDS011;12006;42.666;23.326;2023-08-30T07:04:44;4.10;;;2.70;;
23658;SDS011;12006;42.666;23.326;2023-08-30T07:07:11;4.72;;;2.75;;
23658;SDS011;12006;42.666;23.326;2023-08-30T07:09:36;3.25;;;2.70;;
23658;SDS011;12006;42.666;23.326;2023-08-30T07:12:02;2.97;;;2.67;;
23658;SDS011;12006;42.666;23.326;2023-08-30T07:14:27;3.83;;;2.67;;
23658;SDS011;12006;42.666;23.326;2023-08-30T07:16:52;7.10;;;3.03;;
23658;SDS011;12006;42.666;23.326;2023-08-30T07:19:17;5.43;;;3.03;;
23658;SDS011;12006;42.666;23.326;2023-08-30T07:21:43;4.25;;;2.88;;
23658;SDS011;12006;42.666;23.326;2023-08-30T07:24:08;3.40;;;2.75;;
23658;SDS011;12006;42.666;23.326;2023-08-30T07:26:34;3.28;;;2.88;;
23658;SDS011;12006;42.666;23.326;2023-08-30T07:28:59;3.42;;;2.90;;
23658;SDS011;12006;42.666;23.326;2023-08-30T07:31:24;8.15;;;4.93;;
23658;SDS011;12006;42.666;23.326;2023-08-30T07:33:49;4.68;;;3.53;;
23658;SDS011;12006;42.666;23.326;2023-08-30T07:36:15;4.93;;;3.97;;
23658;SDS011;12006;42.666;23.326;2023-08-30T07:38:40;3.80;;;3.42;;
23658;SDS011;12006;42.666;23.326;2023-08-30T07:41:05;3.17;;;2.88;;
23658;SDS011;12006;42.666;23.326;2023-08-30T07:43:31;3.40;;;2.80;;
23658;SDS011;12006;42.666;23.326;2023-08-30T07:45:58;3.08;;;2.65;;
23658;SDS011;12006;42.666;23.326;2023-08-30T07:48:23;3.75;;;2.60;;
23658;SDS011;12006;42.666;23.326;2023-08-30T07:50:49;4.35;;;2.90;;
23658;SDS011;12006;42.666;23.326;2023-08-30T07:53:14;4.65;;;2.88;;
23658;SDS011;12006;42.666;23.326;2023-08-30T07:55:39;3.30;;;2.88;;
23658;SDS011;12006;42.666;23.326;2023-08-30T07:58:05;2.58;;;2.38;;
23658;SDS011;12006;42.666;23.326;2023-08-30T08:00:30;3.35;;;3.05;;
23658;SDS011;12006;42.666;23.326;2023-08-30T08:02:55;4.55;;;2.53;;
23658;SDS011;12006;42.666;23.326;2023-08-30T08:05:21;3.00;;;2.08;;
23658;SDS011;12006;42.666;23.326;2023-08-30T08:07:51;4.20;;;2.78;;
23658;SDS011;12006;42.666;23.326;2023-08-30T08:10:17;4.13;;;2.78;;
23658;SDS011;12006;42.666;23.326;2023-08-30T08:12:42;4.03;;;3.63;;
23658;SDS011;12006;42.666;23.326;2023-08-30T08:15:08;3.10;;;2.80;;
23658;SDS011;12006;42.666;23.326;2023-08-30T08:17:33;3.40;;;2.97;;
23658;SDS011;12006;42.666;23.326;2023-08-30T08:19:58;3.08;;;2.78;;
23658;SDS011;12006;42.666;23.326;2023-08-30T08:22:24;5.03;;;2.80;;
23658;SDS011;12006;42.666;23.326;2023-08-30T08:24:49;4.10;;;2.85;;
23658;SDS011;12006;42.666;23.326;2023-08-30T08:27:16;6.25;;;3.22;;
23658;SDS011;12006;42.666;23.326;2023-08-30T08:29:42;5.35;;;2.50;;
23658;SDS011;12006;42.666;23.326;2023-08-30T08:32:07;3.80;;;2.17;;
23658;SDS011;12006;42.666;23.326;2023-08-30T08:34:33;3.33;;;2.30;;
23658;SDS011;12006;42.666;23.326;2023-08-30T08:36:58;3.85;;;2.65;;
23658;SDS011;12006;42.666;23.326;2023-08-30T08:39:24;2.88;;;2.40;;
23658;SDS011;12006;42.666;23.326;2023-08-30T08:41:49;3.55;;;2.70;;
23658;SDS011;12006;42.666;23.326;2023-08-30T08:44:17;3.75;;;3.10;;
23658;SDS011;12006;42.666;23.326;2023-08-30T08:46:43;5.10;;;2.72;;
23658;SDS011;12006;42.666;23.326;2023-08-30T08:49:11;5.53;;;2.97;;
23658;SDS011;12006;42.666;23.326;2023-08-30T08:51:38;4.35;;;2.55;;
23658;SDS011;12006;42.666;23.326;2023-08-30T08:54:04;3.67;;;2.78;;
23658;SDS011;12006;42.666;23.326;2023-08-30T08:56:32;4.45;;;2.85;;
23658;SDS011;12006;42.666;23.326;2023-08-30T08:59:00;3.67;;;2.80;;
23658;SDS011;12006;42.666;23.326;2023-08-30T09:01:26;5.03;;;3.05;;
23658;SDS011;12006;42.666;23.326;2023-08-30T09:03:52;3.97;;;2.58;;
23658;SDS011;12006;42.666;23.326;2023-08-30T09:06:18;5.05;;;2.78;;
23658;SDS011;12006;42.666;23.326;2023-08-30T09:08:43;4.22;;;3.08;;
23658;SDS011;12006;42.666;23.326;2023-08-30T09:11:08;3.65;;;2.50;;
23658;SDS011;12006;42.666;23.326;2023-08-30T09:13:33;3.97;;;3.03;;
23658;SDS011;12006;42.666;23.326;2023-08-30T09:15:59;2.97;;;2.70;;
23658;SDS011;12006;42.666;23.326;2023-08-30T09:18:24;4.78;;;2.75;;
23658;SDS011;12006;42.666;23.326;2023-08-30T09:21:05;4.53;;;3.17;;
23658;SDS011;12006;42.666;23.326;2023-08-30T09:23:31;4.85;;;3.97;;
23658;SDS011;12006;42.666;23.326;2023-08-30T09:25:56;5.00;;;4.15;;
23658;SDS011;12006;42.666;23.326;2023-08-30T09:28:21;4.22;;;2.95;;
23658;SDS011;12006;42.666;23.326;2023-08-30T09:30:50;4.40;;;3.28;;
23658;SDS011;12006;42.666;23.326;2023-08-30T09:33:19;3.60;;;2.80;;
23658;SDS011;12006;42.666;23.326;2023-08-30T09:35:45;5.22;;;3.88;;
23658;SDS011;12006;42.666;23.326;2023-08-30T09:38:19;5.50;;;3.03;;
23658;SDS011;12006;42.666;23.326;2023-08-30T09:40:45;5.97;;;3.95;;
23658;SDS011;12006;42.666;23.326;2023-08-30T09:43:11;3.80;;;3.47;;
23658;SDS011;12006;42.666;23.326;2023-08-30T09:45:36;5.15;;;3.65;;
23658;SDS011;12006;42.666;23.326;2023-08-30T09:48:02;4.28;;;3.40;;
23658;SDS011;12006;42.666;23.326;2023-08-30T09:50:28;5.00;;;3.30;;
23658;SDS011;12006;42.666;23.326;2023-08-30T09:52:54;4.70;;;3.30;;
23658;SDS011;12006;42.666;23.326;2023-08-30T09:55:20;6.10;;;3.08;;
23658;SDS011;12006;42.666;23.326;2023-08-30T09:57:46;5.05;;;3.83;;
23658;SDS011;12006;42.666;23.326;2023-08-30T10:00:12;3.35;;;3.03;;
23658;SDS011;12006;42.666;23.326;2023-08-30T10:02:39;3.83;;;3.33;;
23658;SDS011;12006;42.666;23.326;2023-08-30T10:05:07;4.28;;;3.75;;
23658;SDS011;12006;42.666;23.326;2023-08-30T10:07:33;3.42;;;3.13;;
23658;SDS011;12006;42.666;23.326;2023-08-30T10:09:58;4.50;;;3.47;;
23658;SDS011;12006;42.666;23.326;2023-08-30T10:12:24;7.38;;;3.78;;
23658;SDS011;12006;42.666;23.326;2023-08-30T10:14:50;4.65;;;3.92;;
23658;SDS011;12006;42.666;23.326;2023-08-30T10:17:16;4.63;;;3.90;;
23658;SDS011;12006;42.666;23.326;2023-08-30T10:19:43;4.30;;;3.47;;
23658;SDS011;12006;42.666;23.326;2023-08-30T10:22:08;3.78;;;3.33;;
23658;SDS011;12006;42.666;23.326;2023-08-30T10:24:38;3.75;;;3.20;;
23658;SDS011;12006;42.666;23.326;2023-08-30T10:27:05;4.05;;;3.58;;
23658;SDS011;12006;42.666;23.326;2023-08-30T10:29:32;3.90;;;3.33;;
23658;SDS011;12006;42.666;23.326;2023-08-30T10:32:02;4.50;;;3.80;;
23658;SDS011;12006;42.666;23.326;2023-08-30T10:34:31;4.07;;;3.67;;
23658;SDS011;12006;42.666;23.326;2023-08-30T10:36:56;3.67;;;3.38;;
23658;SDS011;12006;42.666;23.326;2023-08-30T10:39:27;5.15;;;3.65;;
23658;SDS011;12006;42.666;23.326;2023-08-30T10:41:57;3.92;;;3.58;;
23658;SDS011;12006;42.666;23.326;2023-08-30T10:44:23;5.18;;;4.00;;
23658;SDS011;12006;42.666;23.326;2023-08-30T10:46:52;4.13;;;3.60;;
23658;SDS011;12006;42.666;23.326;2023-08-30T10:49:18;5.22;;;3.92;;
23658;SDS011;12006;42.666;23.326;2023-08-30T10:51:43;4.50;;;4.10;;
23658;SDS011;12006;42.666;23.326;2023-08-30T10:59:16;4.55;;;3.60;;
23658;SDS011;12006;42.666;23.326;2023-08-30T11:01:42;5.53;;;3.92;;
23658;SDS011;12006;42.666;23.326;2023-08-30T11:04:08;4.18;;;3.75;;
23658;SDS011;12006;42.666;23.326;2023-08-30T11:06:34;6.00;;;3.85;;
23658;SDS011;12006;42.666;23.326;2023-08-30T11:08:59;4.75;;;4.18;;
23658;SDS011;12006;42.666;23.326;2023-08-30T11:11:25;5.40;;;3.65;;
23658;SDS011;12006;42.666;23.326;2023-08-30T11:13:50;4.38;;;3.65;;
23658;SDS011;12006;42.666;23.326;2023-08-30T11:16:20;4.65;;;3.65;;
23658;SDS011;12006;42.666;23.326;2023-08-30T11:18:46;5.00;;;3.92;;
23658;SDS011;12006;42.666;23.326;2023-08-30T11:21:11;5.32;;;4.20;;
23658;SDS011;12006;42.666;23.326;2023-08-30T11:23:37;5.78;;;4.38;;
23658;SDS011;12006;42.666;23.326;2023-08-30T11:26:03;5.28;;;4.05;;
23658;SDS011;12006;42.666;23.326;2023-08-30T11:28:29;6.82;;;4.28;;
23658;SDS011;12006;42.666;23.326;2023-08-30T11:30:54;5.80;;;4.72;;
23658;SDS011;12006;42.666;23.326;2023-08-30T11:33:20;5.00;;;3.83;;
23658;SDS011;12006;42.666;23.326;2023-08-30T11:35:45;4.88;;;4.47;;
23658;SDS011;12006;42.666;23.326;2023-08-30T11:38:13;4.55;;;4.15;;
23658;SDS011;12006;42.666;23.326;2023-08-30T11:40:38;4.95;;;3.72;;
23658;SDS011;12006;42.666;23.326;2023-08-30T11:43:04;5.47;;;3.90;;
23658;SDS011;12006;42.666;23.326;2023-08-30T11:45:34;5.82;;;4.07;;
23658;SDS011;12006;42.666;23.326;2023-08-30T11:48:00;4.05;;;3.65;;
23658;SDS011;12006;42.666;23.326;2023-08-30T11:50:25;5.00;;;3.88;;
23658;SDS011;12006;42.666;23.326;2023-08-30T11:52:51;5.38;;;4.88;;
23658;SDS011;12006;42.666;23.326;2023-08-30T11:55:17;4.90;;;4.03;;
23658;SDS011;12006;42.666;23.326;2023-08-30T11:57:47;4.97;;;3.90;;
23658;SDS011;12006;42.666;23.326;2023-08-30T12:00:13;4.43;;;3.97;;
23658;SDS011;12006;42.666;23.326;2023-08-30T12:02:41;4.05;;;3.65;;
23658;SDS011;12006;42.666;23.326;2023-08-30T12:05:10;6.25;;;4.47;;
23658;SDS011;12006;42.666;23.326;2023-08-30T12:07:36;4.85;;;3.92;;
23658;SDS011;12006;42.666;23.326;2023-08-30T12:10:05;4.60;;;4.20;;
23658;SDS011;12006;42.666;23.326;2023-08-30T12:12:30;4.32;;;3.75;;
23658;SDS011;12006;42.666;23.326;2023-08-30T12:14:56;4.45;;;4.05;;
23658;SDS011;12006;42.666;23.326;2023-08-30T12:17:22;4.40;;;4.00;;
23658;SDS011;12006;42.666;23.326;2023-08-30T12:19:54;5.88;;;5.35;;
23658;SDS011;12006;42.666;23.326;2023-08-30T12:22:19;5.55;;;4.32;;
23658;SDS011;12006;42.666;23.326;2023-08-30T12:24:45;5.05;;;4.10;;
23658;SDS011;12006;42.666;23.326;2023-08-30T12:27:10;3.95;;;3.60;;
23658;SDS011;12006;42.666;23.326;2023-08-30T12:29:36;5.75;;;3.90;;
23658;SDS011;12006;42.666;23.326;2023-08-30T12:32:01;4.95;;;4.55;;
23658;SDS011;12006;42.666;23.326;2023-08-30T12:34:26;5.20;;;4.25;;
23658;SDS011;12006;42.666;23.326;2023-08-30T12:36:52;6.32;;;5.82;;
23658;SDS011;12006;42.666;23.326;2023-08-30T12:39:17;5.13;;;4.60;;
23658;SDS011;12006;42.666;23.326;2023-08-30T12:41:42;6.43;;;5.78;;
23658;SDS011;12006;42.666;23.326;2023-08-30T12:44:08;4.63;;;4.18;;
23658;SDS011;12006;42.666;23.326;2023-08-30T12:46:33;4.63;;;3.75;;
23658;SDS011;12006;42.666;23.326;2023-08-30T12:48:58;4.38;;;3.95;;
23658;SDS011;12006;42.666;23.326;2023-08-30T12:51:24;4.90;;;4.50;;
23658;SDS011;12006;42.666;23.326;2023-08-30T12:53:49;6.90;;;4.63;;
23658;SDS011;12006;42.666;23.326;2023-08-30T12:56:14;5.10;;;4.60;;
23658;SDS011;12006;42.666;23.326;2023-08-30T12:58:39;4.80;;;4.30;;
23658;SDS011;12006;42.666;23.326;2023-08-30T13:01:05;4.65;;;4.18;;
23658;SDS011;12006;42.666;23.326;2023-08-30T13:03:30;4.88;;;4.38;;
23658;SDS011;12006;42.666;23.326;2023-08-30T13:05:55;5.13;;;4.63;;
23658;SDS011;12006;42.666;23.326;2023-08-30T13:08:20;4.88;;;4.43;;
23658;SDS011;12006;42.666;23.326;2023-08-30T13:10:46;5.07;;;4.57;;
23658;SDS011;12006;42.666;23.326;2023-08-30T13:13:11;5.28;;;4.55;;
23658;SDS011;12006;42.666;23.326;2023-08-30T13:15:36;5.00;;;4.50;;
23658;SDS011;12006;42.666;23.326;2023-08-30T13:18:01;4.28;;;3.88;;
23658;SDS011;12006;42.666;23.326;2023-08-30T13:20:27;5.70;;;4.10;;
23658;SDS011;12006;42.666;23.326;2023-08-30T13:22:52;7.28;;;5.03;;
23658;SDS011;12006;42.666;23.326;2023-08-30T13:25:17;4.32;;;3.92;;
23658;SDS011;12006;42.666;23.326;2023-08-30T13:27:43;3.70;;;3.40;;
23658;SDS011;12006;42.666;23.326;2023-08-30T13:30:08;4.22;;;3.50;;
23658;SDS011;12006;42.666;23.326;2023-08-30T13:32:33;4.68;;;3.22;;
23658;SDS011;12006;42.666;23.326;2023-08-30T13:34:59;3.72;;;3.00;;
23658;SDS011;12006;42.666;23.326;2023-08-30T13:37:24;4.28;;;3.10;;
23658;SDS011;12006;42.666;23.326;2023-08-30T13:39:49;4.38;;;3.03;;
23658;SDS011;12006;42.666;23.326;2023-08-30T13:42:15;3.47;;;2.90;;
23658;SDS011;12006;42.666;23.326;2023-08-30T13:44:40;5.60;;;3.72;;
23658;SDS011;12006;42.666;23.326;2023-08-30T13:47:07;3.85;;;2.80;;
23658;SDS011;12006;42.666;23.326;2023-08-30T13:49:32;5.78;;;2.90;;
23658;SDS011;12006;42.666;23.326;2023-08-30T13:51:58;4.10;;;3.30;;
23658;SDS011;12006;42.666;23.326;2023-08-30T13:54:24;4.18;;;3.30;;
23658;SDS011;12006;42.666;23.326;2023-08-30T13:56:49;3.80;;;3.13;;
23658;SDS011;12006;42.666;23.326;2023-08-30T13:59:15;6.55;;;3.00;;
23658;SDS011;12006;42.666;23.326;2023-08-30T14:01:40;3.22;;;2.92;;
23658;SDS011;12006;42.666;23.326;2023-08-30T14:04:06;3.70;;;3.03;;
23658;SDS011;12006;42.666;23.326;2023-08-30T14:06:31;3.22;;;2.92;;
23658;SDS011;12006;42.666;23.326;2023-08-30T14:08:57;3.42;;;3.00;;
23658;SDS011;12006;42.666;23.326;2023-08-30T14:11:22;3.25;;;2.63;;
23658;SDS011;12006;42.666;23.326;2023-08-30T14:13:48;4.55;;;3.08;;
23658;SDS011;12006;42.666;23.326;2023-08-30T14:16:13;2.65;;;2.45;;
23658;SDS011;12006;42.666;23.326;2023-08-30T14:18:38;3.92;;;3.10;;
23658;SDS011;12006;42.666;23.326;2023-08-30T14:21:04;3.45;;;2.78;;
23658;SDS011;12006;42.666;23.326;2023-08-30T14:23:29;2.85;;;2.53;;
23658;SDS011;12006;42.666;23.326;2023-08-30T14:26:12;3.47;;;3.08;;
23658;SDS011;12006;42.666;23.326;2023-08-30T14:28:41;3.60;;;2.60;;
23658;SDS011;12006;42.666;23.326;2023-08-30T14:31:07;4.88;;;2.58;;
23658;SDS011;12006;42.666;23.326;2023-08-30T14:33:32;2.58;;;2.38;;